createdAt,value
2019-02-14T00:00:48.146Z,22.63
2019-02-14T00:03:14.997Z,24.00
2019-02-14T00:05:41.764Z,23.83
2019-02-14T00:08:08.593Z,21.43
2019-02-14T00:10:35.430Z,21.43
2019-02-14T00:13:02.161Z,21.73
2019-02-14T00:15:28.866Z,21.87
2019-02-14T00:17:55.636Z,21.97
2019-02-14T00:20:22.387Z,21.03
2019-02-14T00:22:49.229Z,18.83
2019-02-14T00:25:15.960Z,20.47
2019-02-14T00:27:42.711Z,23.77
2019-02-14T00:30:09.449Z,20.03
2019-02-14T00:32:36.289Z,21.73
2019-02-14T00:35:03.130Z,21.27
2019-02-14T00:37:29.871Z,23.63
2019-02-14T00:39:56.702Z,22.37
2019-02-14T00:42:23.455Z,19.27
2019-02-14T00:44:50.178Z,20.87
2019-02-14T00:47:16.930Z,20.87
2019-02-14T00:49:43.661Z,21.17
2019-02-14T00:52:10.508Z,20.53
2019-02-14T00:54:37.239Z,19.83
2019-02-14T00:57:03.992Z,19.33
2019-02-14T00:59:30.730Z,21.97
2019-02-14T01:01:57.572Z,19.40
2019-02-14T01:04:24.437Z,21.33
2019-02-14T01:06:51.248Z,20.77
2019-02-14T01:09:17.993Z,21.47
2019-02-14T01:11:44.834Z,17.93
2019-02-14T01:14:11.575Z,20.50
2019-02-14T01:16:38.415Z,18.67
2019-02-14T01:19:05.188Z,22.00
2019-02-14T01:21:31.895Z,20.57
2019-02-14T01:23:58.598Z,20.33
2019-02-14T01:26:25.379Z,19.10
2019-02-14T01:28:52.212Z,21.50
2019-02-14T01:31:18.945Z,21.10
2019-02-14T01:33:45.645Z,22.30
2019-02-14T01:36:12.423Z,21.10
2019-02-14T01:38:39.170Z,22.37
2019-02-14T01:41:06.004Z,20.33
2019-02-14T01:43:32.749Z,19.33
2019-02-14T01:45:59.595Z,21.60
2019-02-14T01:48:26.323Z,21.60
2019-02-14T01:50:52.962Z,18.73
2019-02-14T01:53:19.816Z,22.23
2019-02-14T01:55:46.541Z,20.37
2019-02-14T01:58:13.290Z,20.90
2019-02-14T02:00:40.132Z,18.60
2019-02-14T02:03:07.071Z,19.53
2019-02-14T02:05:33.920Z,19.70
2019-02-14T02:08:00.645Z,18.67
2019-02-14T02:10:27.308Z,18.80
2019-02-14T02:12:54.135Z,16.53
2019-02-14T02:15:20.875Z,19.70
2019-02-14T02:17:48.252Z,21.53
2019-02-14T02:20:15.252Z,18.27
2019-02-14T02:22:42.212Z,17.97
2019-02-14T02:25:09.138Z,18.57
2019-02-14T02:27:36.004Z,19.37
2019-02-14T02:30:02.839Z,16.87
2019-02-14T02:32:29.575Z,18.60
2019-02-14T02:34:56.331Z,18.27
2019-02-14T02:37:23.177Z,20.20
2019-02-14T02:39:49.895Z,16.17
2019-02-14T02:42:16.650Z,17.60
2019-02-14T02:44:43.373Z,19.60
2019-02-14T02:47:10.115Z,19.03
2019-02-14T02:49:36.851Z,19.80
2019-02-14T02:52:03.596Z,19.30
2019-02-14T02:54:30.646Z,20.50
2019-02-14T02:56:57.391Z,19.70
2019-02-14T02:59:24.179Z,18.27
2019-02-14T03:01:50.961Z,17.53
2019-02-14T03:04:17.709Z,19.00
2019-02-14T03:06:44.551Z,17.60
2019-02-14T03:09:11.287Z,19.70
2019-02-14T03:11:38.034Z,20.30
2019-02-14T03:14:04.872Z,18.00
2019-02-14T03:16:31.611Z,18.43
2019-02-14T03:18:58.453Z,20.37
2019-02-14T03:21:25.192Z,18.43
2019-02-14T03:23:51.932Z,17.17
2019-02-14T03:26:18.670Z,19.40
2019-02-14T03:28:45.369Z,17.93
2019-02-14T03:31:12.151Z,17.50
2019-02-14T03:33:38.878Z,17.57
2019-02-14T03:36:05.626Z,17.60
2019-02-14T03:38:32.367Z,19.37
2019-02-14T03:40:59.603Z,18.03
2019-02-14T03:43:26.449Z,16.80
2019-02-14T03:45:53.200Z,18.87
2019-02-14T03:48:19.927Z,18.27
2019-02-14T03:50:46.779Z,19.07
2019-02-14T03:53:13.624Z,18.70
2019-02-14T03:55:40.462Z,19.87
2019-02-14T03:58:07.205Z,19.17
2019-02-14T04:00:33.935Z,18.20
2019-02-14T04:03:00.833Z,18.27
2019-02-14T04:05:27.617Z,18.27
2019-02-14T04:07:54.473Z,17.93
2019-02-14T04:10:21.405Z,18.87
2019-02-14T04:12:48.153Z,17.93
2019-02-14T04:15:14.994Z,18.30
2019-02-14T04:17:41.927Z,17.90
2019-02-14T04:20:08.722Z,17.43
2019-02-14T04:22:35.507Z,18.63
2019-02-14T04:25:02.243Z,17.90
2019-02-14T04:27:28.891Z,19.43
2019-02-14T04:29:55.727Z,19.63
2019-02-14T04:32:22.985Z,24.80
2019-02-14T04:34:49.827Z,20.27
2019-02-14T04:37:16.555Z,21.73
2019-02-14T04:39:43.313Z,19.03
2019-02-14T04:42:10.038Z,19.47
2019-02-14T04:44:36.884Z,20.97
2019-02-14T04:47:03.728Z,17.97
2019-02-14T04:49:30.470Z,17.87
2019-02-14T04:51:57.196Z,17.17
2019-02-14T04:54:23.957Z,17.23
2019-02-14T04:56:50.776Z,18.73
2019-02-14T04:59:17.412Z,19.77
2019-02-14T05:01:44.065Z,17.07
2019-02-14T05:04:10.903Z,19.20
2019-02-14T05:06:44.225Z,19.50
2019-02-14T05:09:06.171Z,19.10
2019-02-14T05:11:32.970Z,18.03
2019-02-14T05:13:59.806Z,21.33
2019-02-14T05:16:26.648Z,18.80
2019-02-14T05:18:53.592Z,19.33
2019-02-14T05:21:20.325Z,18.03
2019-02-14T05:23:47.178Z,17.23
2019-02-14T05:26:13.912Z,20.83
2019-02-14T05:28:40.760Z,19.50
2019-02-14T05:31:07.590Z,19.70
2019-02-14T05:33:34.359Z,19.50
2019-02-14T05:36:01.064Z,22.03
2019-02-14T05:38:27.805Z,19.93
2019-02-14T05:40:54.543Z,19.23
2019-02-14T05:43:21.284Z,20.07
2019-02-14T05:45:48.337Z,18.10
2019-02-14T05:48:15.079Z,20.07
2019-02-14T05:50:41.919Z,18.33
2019-02-14T05:53:08.712Z,17.77
2019-02-14T05:55:35.509Z,18.97
2019-02-14T05:58:02.241Z,17.00
2019-02-14T06:00:29.070Z,18.60
2019-02-14T06:02:55.709Z,17.93
2019-02-14T06:05:22.482Z,17.13
2019-02-14T06:07:49.303Z,17.80
2019-02-14T06:10:15.990Z,18.57
2019-02-14T06:12:42.678Z,16.93
2019-02-14T06:15:09.609Z,19.17
2019-02-14T06:17:36.563Z,19.03
2019-02-14T06:20:03.301Z,16.23
2019-02-14T06:22:30.143Z,20.87
2019-02-14T06:24:56.874Z,19.57
2019-02-14T06:27:23.624Z,19.13
2019-02-14T06:29:50.383Z,19.53
2019-02-14T06:32:17.090Z,20.17
2019-02-14T06:34:43.728Z,21.37
2019-02-14T06:37:10.581Z,21.33
2019-02-14T06:39:37.428Z,19.53
2019-02-14T06:42:04.200Z,19.60
2019-02-14T06:44:30.991Z,20.00
2019-02-14T06:46:57.634Z,20.23
2019-02-14T06:49:24.379Z,17.83
2019-02-14T06:51:51.223Z,20.23
2019-02-14T06:54:17.953Z,20.77
2019-02-14T06:56:44.689Z,19.73
2019-02-14T06:59:11.542Z,20.73
2019-02-14T07:01:38.389Z,21.03
2019-02-14T07:04:05.329Z,19.93
2019-02-14T07:06:32.059Z,18.73
2019-02-14T07:08:58.799Z,20.43
2019-02-14T07:11:25.544Z,19.20
2019-02-14T07:13:52.277Z,21.13
2019-02-14T07:16:19.014Z,22.53
2019-02-14T07:18:45.650Z,20.57
2019-02-14T07:21:12.388Z,23.37
2019-02-14T07:23:39.026Z,20.23
2019-02-14T07:26:05.771Z,20.00
2019-02-14T07:28:32.403Z,20.10
2019-02-14T07:30:59.141Z,20.83
2019-02-14T07:33:25.778Z,19.33
2019-02-14T07:35:52.631Z,21.73
2019-02-14T07:38:19.464Z,18.93
2019-02-14T07:40:46.201Z,18.97
2019-02-14T07:43:12.906Z,19.23
2019-02-14T07:45:41.271Z,17.53
2019-02-14T07:48:08.057Z,18.87
2019-02-14T07:50:34.906Z,20.50
2019-02-14T07:53:01.753Z,17.47
2019-02-14T07:55:28.489Z,18.83
2019-02-14T07:57:55.217Z,18.70
2019-02-14T08:00:21.970Z,19.70
2019-02-14T08:02:48.706Z,18.40
2019-02-14T08:05:15.404Z,20.87
2019-02-14T08:07:42.189Z,20.63
2019-02-14T08:10:08.927Z,19.43
2019-02-14T08:12:35.654Z,18.87
2019-02-14T08:15:02.418Z,16.97
2019-02-14T08:17:29.131Z,16.47
2019-02-14T08:19:55.877Z,17.20
2019-02-14T08:22:22.623Z,17.80
2019-02-14T08:24:49.368Z,16.37
2019-02-14T08:27:16.202Z,17.83
2019-02-14T08:29:43.045Z,16.87
2019-02-14T08:32:09.785Z,15.23
2019-02-14T08:34:36.523Z,15.80
2019-02-14T08:37:03.262Z,16.07
2019-02-14T08:39:30.003Z,17.23
2019-02-14T08:41:56.739Z,16.93
2019-02-14T08:44:23.474Z,16.70
2019-02-14T08:46:50.220Z,15.97
2019-02-14T08:49:16.950Z,16.60
2019-02-14T08:51:43.688Z,17.40
2019-02-14T08:54:10.331Z,15.13
2019-02-14T08:56:37.075Z,15.63
2019-02-14T08:59:03.819Z,16.03
2019-02-14T09:01:30.549Z,16.50
2019-02-14T09:03:57.295Z,16.03
2019-02-14T09:06:24.137Z,18.50
2019-02-14T09:08:50.976Z,15.67
2019-02-14T09:11:17.816Z,15.03
2019-02-14T09:13:44.517Z,14.20
2019-02-14T09:16:11.298Z,14.37
2019-02-14T09:18:38.035Z,14.73
2019-02-14T09:21:04.769Z,13.40
2019-02-14T09:23:31.505Z,13.37
2019-02-14T09:25:58.254Z,12.67
2019-02-14T09:28:24.960Z,12.80
2019-02-14T09:30:51.731Z,11.20
2019-02-14T09:33:18.464Z,10.50
2019-02-14T09:35:45.218Z,11.10
2019-02-14T09:38:11.948Z,11.13
2019-02-14T09:40:38.690Z,11.33
2019-02-14T09:43:05.559Z,10.93
2019-02-14T09:45:32.678Z,10.67
2019-02-14T09:47:59.694Z,11.80
2019-02-14T09:50:26.483Z,11.40
2019-02-14T09:52:53.381Z,13.47
2019-02-14T09:55:20.150Z,11.90
2019-02-14T09:57:46.892Z,10.50
2019-02-14T10:00:13.731Z,11.27
2019-02-14T10:02:40.432Z,10.97
2019-02-14T10:05:07.116Z,10.17
2019-02-14T10:07:33.948Z,10.27
2019-02-14T10:10:00.789Z,9.57
2019-02-14T10:12:27.628Z,10.43
2019-02-14T10:14:54.319Z,9.97
2019-02-14T10:17:22.438Z,9.47
2019-02-14T10:19:49.238Z,9.40
2019-02-14T10:25:01.437Z,10.47
2019-02-14T10:27:28.138Z,11.03
2019-02-14T10:29:54.975Z,10.20
2019-02-14T10:32:21.707Z,11.57
2019-02-14T10:34:48.345Z,11.57
2019-02-14T10:37:15.291Z,11.37
2019-02-14T10:39:42.040Z,12.07
2019-02-14T10:42:08.907Z,12.07
2019-02-14T10:44:35.824Z,10.90
2019-02-14T10:47:02.555Z,11.50
2019-02-14T10:49:29.300Z,10.53
2019-02-14T10:51:56.042Z,10.80
2019-02-14T10:54:22.774Z,11.50
2019-02-14T10:56:49.517Z,10.00
2019-02-14T10:59:16.363Z,10.93
2019-02-14T11:01:43.202Z,11.37
2019-02-14T11:04:10.248Z,13.20
2019-02-14T11:06:36.991Z,13.75
2019-02-14T11:09:03.922Z,12.88
2019-02-14T11:11:30.673Z,12.45
2019-02-14T11:13:57.508Z,13.43
2019-02-14T11:16:24.453Z,14.10
2019-02-14T11:18:51.189Z,12.78
2019-02-14T11:21:18.149Z,13.03
2019-02-14T11:23:44.996Z,12.83
2019-02-14T11:26:11.823Z,12.40
2019-02-14T11:28:38.563Z,12.63
2019-02-14T11:31:05.268Z,13.03
2019-02-14T11:33:32.041Z,13.93
2019-02-14T11:35:58.770Z,13.27
2019-02-14T11:38:25.511Z,13.70
2019-02-14T11:40:52.251Z,12.17
2019-02-14T11:43:18.998Z,13.43
2019-02-14T11:45:45.839Z,12.97
2019-02-14T11:48:12.570Z,13.27
2019-02-14T11:50:39.533Z,12.90
2019-02-14T11:53:14.043Z,12.87
2019-02-14T11:55:34.759Z,13.77
2019-02-14T11:58:01.588Z,13.10
2019-02-14T12:00:28.519Z,13.37
2019-02-14T12:02:56.314Z,12.50
2019-02-14T12:05:23.434Z,13.50
2019-02-14T12:07:50.190Z,13.40
2019-02-14T12:10:17.031Z,13.57
2019-02-14T12:12:43.761Z,11.57
2019-02-14T12:15:10.602Z,13.93
2019-02-14T12:17:37.347Z,12.57
2019-02-14T12:20:04.084Z,13.23
2019-02-14T12:22:30.810Z,12.77
2019-02-14T12:24:57.549Z,10.57
2019-02-14T12:27:24.309Z,11.93
2019-02-14T12:29:51.027Z,9.43
2019-02-14T12:32:17.776Z,9.37
2019-02-14T12:34:44.520Z,11.83
2019-02-14T12:37:11.247Z,10.73
2019-02-14T12:39:38.089Z,10.23
2019-02-14T12:42:04.815Z,11.03
2019-02-14T12:44:31.580Z,10.30
2019-02-14T12:46:58.311Z,10.00
2019-02-14T12:49:25.352Z,12.17
2019-02-14T12:51:52.315Z,9.03
2019-02-14T12:54:19.049Z,11.37
2019-02-14T12:56:45.794Z,10.27
2019-02-14T12:59:12.543Z,10.40
2019-02-14T13:01:39.262Z,10.83
2019-02-14T13:04:06.075Z,10.23
2019-02-14T13:06:32.845Z,10.50
2019-02-14T13:08:59.688Z,10.40
2019-02-14T13:11:26.531Z,11.10
2019-02-14T13:13:53.378Z,12.87
2019-02-14T13:16:20.199Z,12.80
2019-02-14T13:18:46.942Z,11.53
2019-02-14T13:21:13.695Z,11.60
2019-02-14T13:23:40.419Z,14.23
2019-02-14T13:26:07.158Z,13.53
2019-02-14T13:28:33.998Z,15.00
2019-02-14T13:31:00.774Z,13.13
2019-02-14T13:33:27.594Z,14.83
2019-02-14T13:35:54.478Z,12.33
2019-02-14T13:38:21.167Z,12.67
2019-02-14T13:40:48.012Z,12.83
2019-02-14T13:43:14.743Z,14.70
2019-02-14T13:45:41.489Z,15.77
2019-02-14T13:48:08.348Z,14.57
2019-02-14T13:50:35.076Z,13.90
2019-02-14T13:53:02.036Z,13.33
2019-02-14T13:55:28.857Z,14.97
2019-02-14T13:57:55.590Z,15.47
2019-02-14T14:00:22.359Z,15.97
2019-02-14T14:02:49.088Z,14.07
2019-02-14T14:05:16.022Z,15.50
2019-02-14T14:07:42.862Z,12.67
2019-02-14T14:10:09.599Z,13.70
2019-02-14T14:12:36.440Z,14.10
2019-02-14T14:15:03.181Z,15.27
2019-02-14T14:17:30.060Z,13.70
2019-02-14T14:19:56.862Z,14.23
2019-02-14T14:22:23.591Z,12.77
2019-02-14T14:24:50.333Z,12.63
2019-02-14T14:27:17.089Z,14.13
2019-02-14T14:29:44.015Z,13.20
2019-02-14T14:32:10.651Z,12.83
2019-02-14T14:34:37.289Z,13.83
2019-02-14T14:37:04.039Z,12.33
2019-02-14T14:39:30.882Z,13.23
2019-02-14T14:41:57.723Z,12.67
2019-02-14T14:44:24.960Z,15.00
2019-02-14T14:46:51.712Z,14.23
2019-02-14T14:49:18.553Z,13.80
2019-02-14T14:51:45.261Z,17.10
2019-02-14T14:54:12.035Z,15.40
2019-02-14T14:56:38.976Z,17.23
2019-02-14T14:59:05.763Z,16.60
2019-02-14T15:01:32.917Z,14.30
2019-02-14T15:03:59.760Z,13.40
2019-02-14T15:06:26.548Z,14.57
2019-02-14T15:08:53.278Z,15.80
2019-02-14T15:11:19.923Z,15.77
2019-02-14T15:13:46.767Z,14.80
2019-02-14T15:16:13.712Z,15.53
2019-02-14T15:18:40.544Z,16.90
2019-02-14T15:21:07.280Z,18.13
2019-02-14T15:23:34.032Z,16.90
2019-02-14T15:26:00.881Z,19.10
2019-02-14T15:28:27.612Z,20.17
2019-02-14T15:30:54.403Z,18.50
2019-02-14T15:33:21.186Z,17.73
2019-02-14T15:35:48.039Z,18.23
2019-02-14T15:38:14.775Z,18.20
2019-02-14T15:40:41.516Z,19.67
2019-02-14T15:43:08.355Z,19.43
2019-02-14T15:45:35.090Z,21.90
2019-02-14T15:48:01.821Z,20.40
2019-02-14T15:50:29.910Z,23.67
2019-02-14T15:52:57.057Z,24.00
2019-02-14T15:55:24.293Z,24.60
2019-02-14T15:57:51.217Z,23.80
2019-02-14T16:00:18.021Z,25.47
2019-02-14T16:02:44.931Z,27.00
2019-02-14T16:05:11.685Z,27.93
2019-02-14T16:07:39.507Z,24.10
2019-02-14T16:10:06.980Z,25.80
2019-02-14T16:12:33.735Z,27.70
2019-02-14T16:15:00.457Z,27.80
2019-02-14T16:17:27.198Z,30.43
2019-02-14T16:19:55.514Z,25.83
2019-02-14T16:22:29.862Z,24.97
2019-02-14T16:24:50.770Z,29.43
2019-02-14T16:27:17.552Z,26.97
2019-02-14T16:29:44.302Z,27.90
2019-02-14T16:32:11.124Z,28.93
2019-02-14T16:34:38.064Z,30.03
2019-02-14T16:37:04.816Z,33.13
2019-02-14T16:39:31.511Z,28.27
2019-02-14T16:41:58.175Z,29.93
2019-02-14T16:44:25.324Z,27.80
2019-02-14T16:46:52.076Z,30.60
2019-02-14T16:49:18.807Z,31.27
2019-02-14T16:51:45.548Z,35.07
2019-02-14T16:54:12.297Z,41.43
2019-02-14T16:56:39.134Z,36.37
2019-02-14T16:59:05.908Z,39.40
2019-02-14T17:01:34.762Z,34.43
2019-02-14T17:04:01.596Z,38.47
2019-02-14T17:06:28.339Z,36.33
2019-02-14T17:08:55.185Z,36.47
2019-02-14T17:11:22.013Z,36.90
2019-02-14T17:13:48.974Z,39.07
2019-02-14T17:16:15.826Z,43.57
2019-02-14T17:18:42.709Z,38.90
2019-02-14T17:21:09.514Z,37.07
2019-02-14T17:23:36.337Z,38.27
2019-02-14T17:26:03.193Z,36.93
2019-02-14T17:28:30.029Z,38.53
2019-02-14T17:30:56.754Z,33.87
2019-02-14T17:33:23.596Z,38.93
2019-02-14T17:35:50.355Z,37.33
2019-02-14T17:38:17.196Z,38.50
2019-02-14T17:40:45.976Z,42.60
2019-02-14T17:43:12.397Z,43.63
2019-02-14T17:45:39.233Z,42.97
2019-02-14T17:48:06.289Z,39.33
2019-02-14T17:50:33.034Z,41.07
2019-02-14T17:52:59.770Z,37.77
2019-02-14T17:55:26.711Z,36.20
2019-02-14T17:57:53.511Z,34.03
2019-02-14T18:00:20.912Z,37.40
2019-02-14T18:02:47.619Z,37.73
2019-02-14T18:05:14.491Z,33.67
2019-02-14T18:07:41.331Z,34.37
2019-02-14T18:10:08.167Z,38.53
2019-02-14T18:12:35.103Z,35.97
2019-02-14T18:15:02.010Z,34.97
2019-02-14T18:17:28.789Z,34.10
2019-02-14T18:19:55.875Z,34.17
2019-02-14T18:22:22.681Z,34.67
2019-02-14T18:24:49.545Z,31.70
2019-02-14T18:27:16.465Z,35.37
2019-02-14T18:29:43.471Z,34.87
2019-02-14T18:32:10.167Z,34.83
2019-02-14T18:34:36.995Z,34.60
2019-02-14T18:37:03.843Z,34.93
2019-02-14T18:39:31.708Z,36.77
2019-02-14T18:41:58.595Z,33.40
2019-02-14T18:44:25.350Z,35.63
2019-02-14T18:46:52.144Z,34.20
2019-02-14T18:49:19.307Z,32.20
2019-02-14T18:51:46.188Z,36.53
2019-02-14T18:54:12.963Z,33.43
2019-02-14T18:56:39.796Z,28.70
2019-02-14T18:59:06.652Z,38.20
2019-02-14T19:01:33.372Z,30.83
2019-02-14T19:04:00.114Z,36.50
2019-02-14T19:06:26.869Z,37.33
2019-02-14T19:08:53.797Z,38.57
2019-02-14T19:11:20.854Z,34.40
2019-02-14T19:13:47.797Z,34.83
2019-02-14T19:16:14.535Z,33.40
2019-02-14T19:18:41.380Z,34.27
2019-02-14T19:21:08.220Z,34.97
2019-02-14T19:23:35.060Z,37.73
2019-02-14T19:26:01.796Z,31.63
2019-02-14T19:28:28.731Z,34.80
2019-02-14T19:30:55.470Z,38.37
2019-02-14T19:33:22.222Z,37.67
2019-02-14T19:35:49.002Z,34.30
2019-02-14T19:38:15.800Z,34.73
2019-02-14T19:40:42.531Z,34.53
2019-02-14T19:43:09.291Z,33.17
2019-02-14T19:45:36.908Z,39.10
2019-02-14T19:48:03.979Z,42.10
2019-02-14T19:50:30.682Z,41.23
2019-02-14T19:52:57.472Z,34.17
2019-02-14T19:55:24.372Z,36.93
2019-02-14T19:57:51.147Z,39.67
2019-02-14T20:00:18.003Z,42.97
2019-02-14T20:02:44.931Z,35.87
2019-02-14T20:05:11.680Z,41.03
2019-02-14T20:07:38.409Z,39.20
2019-02-14T20:10:05.143Z,38.00
2019-02-14T20:12:31.903Z,42.10
2019-02-14T20:14:58.739Z,41.30
2019-02-14T20:17:25.466Z,45.73
2019-02-14T20:19:52.218Z,46.30
2019-02-14T20:22:18.960Z,40.43
2019-02-14T20:24:45.792Z,39.10
2019-02-14T20:27:12.628Z,42.07
2019-02-14T20:29:39.479Z,40.40
2019-02-14T20:32:06.219Z,44.00
2019-02-14T20:34:33.241Z,43.20
2019-02-14T20:37:00.109Z,45.53
2019-02-14T20:39:26.847Z,38.03
2019-02-14T20:41:53.794Z,38.77
2019-02-14T20:44:20.632Z,42.70
2019-02-14T20:46:47.386Z,41.17
2019-02-14T20:49:14.209Z,35.97
2019-02-14T20:51:40.945Z,38.73
2019-02-14T20:54:07.690Z,39.60
2019-02-14T20:56:34.535Z,37.13
2019-02-14T20:59:01.275Z,40.57
2019-02-14T21:01:28.120Z,39.20
2019-02-14T21:03:54.840Z,39.47
2019-02-14T21:06:21.482Z,35.97
2019-02-14T21:08:48.228Z,37.70
2019-02-14T21:11:15.071Z,38.27
2019-02-14T21:13:41.915Z,37.00
2019-02-14T21:16:08.643Z,38.07
2019-02-14T21:18:35.386Z,34.90
2019-02-14T21:21:02.130Z,32.33
2019-02-14T21:23:28.864Z,37.80
2019-02-14T21:25:55.715Z,36.40
2019-02-14T21:28:22.449Z,39.40
2019-02-14T21:30:49.393Z,37.23
2019-02-14T21:33:16.134Z,35.53
2019-02-14T21:35:42.866Z,38.53
2019-02-14T21:38:09.731Z,32.90
2019-02-14T21:40:36.450Z,34.93
2019-02-14T21:43:03.270Z,35.40
2019-02-14T21:45:30.263Z,40.10
2019-02-14T21:47:57.105Z,34.93
2019-02-14T21:50:23.919Z,40.80
2019-02-14T21:52:50.654Z,34.87
2019-02-14T21:55:18.144Z,36.43
2019-02-14T21:57:45.378Z,39.50
2019-02-14T22:00:12.222Z,40.77
2019-02-14T22:02:39.072Z,33.83
2019-02-14T22:05:05.966Z,38.70
2019-02-14T22:07:34.916Z,37.93
2019-02-14T22:10:01.457Z,35.70
2019-02-14T22:12:39.772Z,37.37
2019-02-14T22:14:58.237Z,32.90
2019-02-14T22:17:25.182Z,33.00
2019-02-14T22:19:52.024Z,39.03
2019-02-14T22:22:18.808Z,35.63
2019-02-14T22:24:45.549Z,37.63
2019-02-14T22:27:12.375Z,35.70
2019-02-14T22:29:39.101Z,37.10
2019-02-14T22:32:06.058Z,32.30
2019-02-14T22:34:33.001Z,32.17
2019-02-14T22:36:59.845Z,35.93
2019-02-14T22:39:26.692Z,29.70
2019-02-14T22:41:53.638Z,34.27
2019-02-14T22:44:20.483Z,30.50
2019-02-14T22:46:47.222Z,29.77
2019-02-14T22:49:14.061Z,30.60
2019-02-14T22:51:40.904Z,31.20
2019-02-14T22:54:07.872Z,30.27
2019-02-14T22:56:34.689Z,28.47
2019-02-14T22:59:01.418Z,27.80
2019-02-14T23:01:28.158Z,28.83
2019-02-14T23:03:55.006Z,30.50
2019-02-14T23:06:22.012Z,29.80
2019-02-14T23:08:48.796Z,26.70
2019-02-14T23:11:15.530Z,25.70
2019-02-14T23:13:42.376Z,27.07
2019-02-14T23:16:09.616Z,27.20
2019-02-14T23:18:36.364Z,28.77
2019-02-14T23:21:03.062Z,28.87
2019-02-14T23:23:29.741Z,27.73
2019-02-14T23:25:56.678Z,24.77
2019-02-14T23:28:23.528Z,26.17
2019-02-14T23:30:50.259Z,26.63
2019-02-14T23:33:17.234Z,27.33
2019-02-14T23:35:44.050Z,27.30
2019-02-14T23:38:10.782Z,28.37
2019-02-14T23:40:37.531Z,29.47
2019-02-14T23:43:05.028Z,27.83
2019-02-14T23:45:31.920Z,29.47
2019-02-14T23:47:58.662Z,25.40
2019-02-14T23:50:25.410Z,27.63
2019-02-14T23:52:52.854Z,25.30
2019-02-14T23:55:19.603Z,26.83
2019-02-14T23:57:46.333Z,25.30
